Farmville, Arkansas
Current Conditions -  °F | °C
As of 3:53 PM on Sunday 25 Jan 2015 (Local Time) from KLLQ Reporting Station
Overcast Overcast  
Wind Chill: 60°   Ceiling: 9500
Heat Index: 60°   Visibility: 10mi
Dew Point: 33°   Wind: 15mph
Humidity: 36%   Direction: 320°NW
Pressure: 29.82"   Gusts: 23mph
Location:  33.6176°N, 92.1466°W
Report Text: KLLQ 252153Z AUTO 32013G20KT 10SM SCT070 OVC095 16/01 A2982 RMK AO2 PK WND 28027/2119 RAE49 SLP097 P0000 T01560006
Loading
Personal Weather Stations






























Interactive Weather Map New forecast layout! Learn more

10-Day Weather Forecast

Advertisements
Track Severe Weather on mobile